sensor_id;sensor_type;location;lat;lon;timestamp;P1;durP1;ratioP1;P2;durP2;ratioP2
37529;SDS011;23374;52.758;6.872;2022-11-20T00:00:44;13.33;;;7.10;;
37529;SDS011;23374;52.758;6.872;2022-11-20T00:03:04;13.43;;;6.17;;
37529;SDS011;23374;52.758;6.872;2022-11-20T00:05:25;16.57;;;7.83;;
37529;SDS011;23374;52.758;6.872;2022-11-20T00:07:46;10.90;;;6.40;;
37529;SDS011;23374;52.758;6.872;2022-11-20T00:10:07;13.47;;;6.93;;
37529;SDS011;23374;52.758;6.872;2022-11-20T00:12:27;11.13;;;6.57;;
37529;SDS011;23374;52.758;6.872;2022-11-20T00:14:50;12.43;;;6.80;;
37529;SDS011;23374;52.758;6.872;2022-11-20T00:17:10;14.33;;;7.80;;
37529;SDS011;23374;52.758;6.872;2022-11-20T00:19:31;14.97;;;7.37;;
37529;SDS011;23374;52.758;6.872;2022-11-20T00:21:52;15.80;;;7.10;;
37529;SDS011;23374;52.758;6.872;2022-11-20T00:24:13;13.40;;;6.37;;
37529;SDS011;23374;52.758;6.872;2022-11-20T00:26:34;12.93;;;6.30;;
37529;SDS011;23374;52.758;6.872;2022-11-20T00:28:58;12.20;;;7.10;;
37529;SDS011;23374;52.758;6.872;2022-11-20T00:31:30;11.50;;;6.03;;
37529;SDS011;23374;52.758;6.872;2022-11-20T00:33:52;12.30;;;6.30;;
37529;SDS011;23374;52.758;6.872;2022-11-20T00:36:16;12.70;;;7.20;;
37529;SDS011;23374;52.758;6.872;2022-11-20T00:38:37;16.13;;;6.83;;
37529;SDS011;23374;52.758;6.872;2022-11-20T00:41:00;10.17;;;5.67;;
37529;SDS011;23374;52.758;6.872;2022-11-20T00:43:22;13.60;;;6.13;;
37529;SDS011;23374;52.758;6.872;2022-11-20T00:45:42;10.00;;;5.17;;
37529;SDS011;23374;52.758;6.872;2022-11-20T00:48:02;9.50;;;5.43;;
37529;SDS011;23374;52.758;6.872;2022-11-20T00:50:23;10.23;;;5.60;;
37529;SDS011;23374;52.758;6.872;2022-11-20T00:52:43;10.03;;;5.53;;
37529;SDS011;23374;52.758;6.872;2022-11-20T00:55:04;10.30;;;5.70;;
37529;SDS011;23374;52.758;6.872;2022-11-20T00:57:26;10.93;;;5.50;;
37529;SDS011;23374;52.758;6.872;2022-11-20T00:59:46;10.33;;;5.50;;
37529;SDS011;23374;52.758;6.872;2022-11-20T01:02:06;12.17;;;6.17;;
37529;SDS011;23374;52.758;6.872;2022-11-20T01:04:27;10.93;;;5.73;;
37529;SDS011;23374;52.758;6.872;2022-11-20T01:06:47;11.00;;;5.43;;
37529;SDS011;23374;52.758;6.872;2022-11-20T01:09:13;11.67;;;6.43;;
37529;SDS011;23374;52.758;6.872;2022-11-20T01:11:36;11.43;;;6.20;;
37529;SDS011;23374;52.758;6.872;2022-11-20T01:13:58;11.37;;;5.67;;
37529;SDS011;23374;52.758;6.872;2022-11-20T01:16:28;15.63;;;5.97;;
37529;SDS011;23374;52.758;6.872;2022-11-20T01:18:53;13.27;;;6.23;;
37529;SDS011;23374;52.758;6.872;2022-11-20T01:21:22;11.23;;;6.30;;
37529;SDS011;23374;52.758;6.872;2022-11-20T01:23:44;12.23;;;5.83;;
37529;SDS011;23374;52.758;6.872;2022-11-20T01:26:07;10.10;;;5.57;;
37529;SDS011;23374;52.758;6.872;2022-11-20T01:28:32;13.37;;;6.03;;
37529;SDS011;23374;52.758;6.872;2022-11-20T01:30:56;11.20;;;5.93;;
37529;SDS011;23374;52.758;6.872;2022-11-20T01:33:17;12.53;;;6.33;;
37529;SDS011;23374;52.758;6.872;2022-11-20T01:35:38;12.03;;;5.87;;
37529;SDS011;23374;52.758;6.872;2022-11-20T01:37:58;14.33;;;6.50;;
37529;SDS011;23374;52.758;6.872;2022-11-20T01:40:18;11.00;;;5.67;;
37529;SDS011;23374;52.758;6.872;2022-11-20T01:42:38;11.93;;;6.20;;
37529;SDS011;23374;52.758;6.872;2022-11-20T01:47:31;16.83;;;5.80;;
37529;SDS011;23374;52.758;6.872;2022-11-20T01:50:42;10.03;;;5.50;;
37529;SDS011;23374;52.758;6.872;2022-11-20T01:53:05;9.30;;;4.77;;
37529;SDS011;23374;52.758;6.872;2022-11-20T01:55:32;10.13;;;4.97;;
37529;SDS011;23374;52.758;6.872;2022-11-20T01:57:57;10.03;;;5.77;;
37529;SDS011;23374;52.758;6.872;2022-11-20T02:00:19;13.40;;;5.97;;
37529;SDS011;23374;52.758;6.872;2022-11-20T02:02:42;12.00;;;5.77;;
37529;SDS011;23374;52.758;6.872;2022-11-20T02:05:24;11.20;;;6.00;;
37529;SDS011;23374;52.758;6.872;2022-11-20T02:08:06;9.67;;;5.27;;
37529;SDS011;23374;52.758;6.872;2022-11-20T02:10:26;10.43;;;5.90;;
37529;SDS011;23374;52.758;6.872;2022-11-20T02:12:48;12.63;;;6.67;;
37529;SDS011;23374;52.758;6.872;2022-11-20T02:15:27;12.23;;;6.07;;
37529;SDS011;23374;52.758;6.872;2022-11-20T02:17:48;10.23;;;5.57;;
37529;SDS011;23374;52.758;6.872;2022-11-20T02:20:08;10.40;;;6.30;;
37529;SDS011;23374;52.758;6.872;2022-11-20T02:22:33;12.37;;;6.20;;
37529;SDS011;23374;52.758;6.872;2022-11-20T02:25:01;8.60;;;5.27;;
37529;SDS011;23374;52.758;6.872;2022-11-20T02:27:23;11.77;;;6.00;;
37529;SDS011;23374;52.758;6.872;2022-11-20T02:29:55;11.63;;;5.13;;
37529;SDS011;23374;52.758;6.872;2022-11-20T02:32:25;9.90;;;6.00;;
37529;SDS011;23374;52.758;6.872;2022-11-20T02:34:47;9.40;;;5.37;;
37529;SDS011;23374;52.758;6.872;2022-11-20T02:37:07;12.27;;;6.83;;
37529;SDS011;23374;52.758;6.872;2022-11-20T02:39:29;14.27;;;6.13;;
37529;SDS011;23374;52.758;6.872;2022-11-20T02:41:50;10.60;;;5.63;;
37529;SDS011;23374;52.758;6.872;2022-11-20T02:44:12;12.80;;;6.03;;
37529;SDS011;23374;52.758;6.872;2022-11-20T02:46:33;9.17;;;5.33;;
37529;SDS011;23374;52.758;6.872;2022-11-20T02:48:53;12.47;;;6.17;;
37529;SDS011;23374;52.758;6.872;2022-11-20T02:51:14;9.90;;;5.33;;
37529;SDS011;23374;52.758;6.872;2022-11-20T02:53:35;9.40;;;5.63;;
37529;SDS011;23374;52.758;6.872;2022-11-20T02:55:55;14.20;;;5.87;;
37529;SDS011;23374;52.758;6.872;2022-11-20T02:58:16;11.47;;;5.30;;
37529;SDS011;23374;52.758;6.872;2022-11-20T03:00:36;10.20;;;5.87;;
37529;SDS011;23374;52.758;6.872;2022-11-20T03:02:57;10.70;;;5.83;;
37529;SDS011;23374;52.758;6.872;2022-11-20T03:05:17;11.50;;;5.93;;
37529;SDS011;23374;52.758;6.872;2022-11-20T03:07:38;11.40;;;5.50;;
37529;SDS011;23374;52.758;6.872;2022-11-20T03:09:58;12.83;;;6.67;;
37529;SDS011;23374;52.758;6.872;2022-11-20T03:12:18;9.03;;;5.67;;
37529;SDS011;23374;52.758;6.872;2022-11-20T03:14:38;10.90;;;6.27;;
37529;SDS011;23374;52.758;6.872;2022-11-20T03:16:58;11.13;;;5.87;;
37529;SDS011;23374;52.758;6.872;2022-11-20T03:19:19;10.97;;;5.10;;
37529;SDS011;23374;52.758;6.872;2022-11-20T03:21:41;8.87;;;4.67;;
37529;SDS011;23374;52.758;6.872;2022-11-20T03:24:02;9.60;;;6.00;;
37529;SDS011;23374;52.758;6.872;2022-11-20T03:26:24;11.80;;;6.30;;
37529;SDS011;23374;52.758;6.872;2022-11-20T03:28:53;12.43;;;5.53;;
37529;SDS011;23374;52.758;6.872;2022-11-20T03:31:20;11.33;;;5.90;;
37529;SDS011;23374;52.758;6.872;2022-11-20T03:33:42;9.90;;;5.40;;
37529;SDS011;23374;52.758;6.872;2022-11-20T03:36:04;11.63;;;5.77;;
37529;SDS011;23374;52.758;6.872;2022-11-20T03:38:29;9.33;;;5.73;;
37529;SDS011;23374;52.758;6.872;2022-11-20T03:40:51;12.70;;;6.67;;
37529;SDS011;23374;52.758;6.872;2022-11-20T03:43:17;10.80;;;5.97;;
37529;SDS011;23374;52.758;6.872;2022-11-20T03:45:37;8.07;;;5.27;;
37529;SDS011;23374;52.758;6.872;2022-11-20T03:47:57;11.57;;;6.73;;
37529;SDS011;23374;52.758;6.872;2022-11-20T03:50:17;10.07;;;5.10;;
37529;SDS011;23374;52.758;6.872;2022-11-20T03:52:37;9.60;;;5.37;;
37529;SDS011;23374;52.758;6.872;2022-11-20T03:54:58;9.27;;;5.30;;
37529;SDS011;23374;52.758;6.872;2022-11-20T03:57:18;11.10;;;5.93;;
37529;SDS011;23374;52.758;6.872;2022-11-20T03:59:38;9.50;;;5.73;;
37529;SDS011;23374;52.758;6.872;2022-11-20T04:01:58;12.00;;;5.60;;
37529;SDS011;23374;52.758;6.872;2022-11-20T04:04:18;9.47;;;5.70;;
37529;SDS011;23374;52.758;6.872;2022-11-20T04:06:38;10.33;;;5.53;;
37529;SDS011;23374;52.758;6.872;2022-11-20T04:08:59;10.10;;;5.53;;
37529;SDS011;23374;52.758;6.872;2022-11-20T04:11:28;9.23;;;5.07;;
37529;SDS011;23374;52.758;6.872;2022-11-20T04:14:04;16.13;;;6.10;;
37529;SDS011;23374;52.758;6.872;2022-11-20T04:16:27;9.53;;;6.13;;
37529;SDS011;23374;52.758;6.872;2022-11-20T04:18:53;11.13;;;5.97;;
37529;SDS011;23374;52.758;6.872;2022-11-20T04:21:16;11.17;;;5.23;;
37529;SDS011;23374;52.758;6.872;2022-11-20T04:23:36;11.13;;;5.33;;
37529;SDS011;23374;52.758;6.872;2022-11-20T04:26:08;11.50;;;5.70;;
37529;SDS011;23374;52.758;6.872;2022-11-20T04:28:30;10.47;;;5.47;;
37529;SDS011;23374;52.758;6.872;2022-11-20T04:30:50;10.13;;;5.57;;
37529;SDS011;23374;52.758;6.872;2022-11-20T04:33:10;11.03;;;6.27;;
37529;SDS011;23374;52.758;6.872;2022-11-20T04:35:34;10.00;;;6.00;;
37529;SDS011;23374;52.758;6.872;2022-11-20T04:37:55;10.10;;;6.00;;
37529;SDS011;23374;52.758;6.872;2022-11-20T04:40:15;12.43;;;6.17;;
37529;SDS011;23374;52.758;6.872;2022-11-20T04:42:35;9.10;;;5.20;;
37529;SDS011;23374;52.758;6.872;2022-11-20T04:44:56;11.03;;;6.07;;
37529;SDS011;23374;52.758;6.872;2022-11-20T04:47:17;11.73;;;5.60;;
37529;SDS011;23374;52.758;6.872;2022-11-20T04:49:37;10.07;;;5.23;;
37529;SDS011;23374;52.758;6.872;2022-11-20T04:51:57;12.23;;;5.67;;
37529;SDS011;23374;52.758;6.872;2022-11-20T04:54:18;10.43;;;6.13;;
37529;SDS011;23374;52.758;6.872;2022-11-20T04:56:40;12.53;;;6.07;;
37529;SDS011;23374;52.758;6.872;2022-11-20T04:59:01;11.40;;;5.60;;
37529;SDS011;23374;52.758;6.872;2022-11-20T05:01:23;12.37;;;6.13;;
37529;SDS011;23374;52.758;6.872;2022-11-20T05:03:44;9.50;;;5.77;;
37529;SDS011;23374;52.758;6.872;2022-11-20T05:06:05;12.93;;;6.83;;
37529;SDS011;23374;52.758;6.872;2022-11-20T05:08:27;11.93;;;6.47;;
37529;SDS011;23374;52.758;6.872;2022-11-20T05:10:47;13.17;;;7.00;;
37529;SDS011;23374;52.758;6.872;2022-11-20T05:13:08;13.57;;;6.87;;
37529;SDS011;23374;52.758;6.872;2022-11-20T05:15:28;10.67;;;5.93;;
37529;SDS011;23374;52.758;6.872;2022-11-20T05:17:51;11.03;;;6.20;;
37529;SDS011;23374;52.758;6.872;2022-11-20T05:20:13;13.33;;;6.53;;
37529;SDS011;23374;52.758;6.872;2022-11-20T05:22:33;14.03;;;6.23;;
37529;SDS011;23374;52.758;6.872;2022-11-20T05:24:53;10.30;;;5.80;;
37529;SDS011;23374;52.758;6.872;2022-11-20T05:27:14;12.87;;;6.83;;
37529;SDS011;23374;52.758;6.872;2022-11-20T05:29:34;11.57;;;6.67;;
37529;SDS011;23374;52.758;6.872;2022-11-20T05:31:55;13.03;;;6.60;;
37529;SDS011;23374;52.758;6.872;2022-11-20T05:34:15;11.53;;;6.67;;
37529;SDS011;23374;52.758;6.872;2022-11-20T05:36:35;11.27;;;6.67;;
37529;SDS011;23374;52.758;6.872;2022-11-20T05:38:56;13.57;;;6.30;;
37529;SDS011;23374;52.758;6.872;2022-11-20T05:41:18;10.70;;;6.20;;
37529;SDS011;23374;52.758;6.872;2022-11-20T05:43:40;10.13;;;5.87;;
37529;SDS011;23374;52.758;6.872;2022-11-20T05:46:02;14.63;;;6.57;;
37529;SDS011;23374;52.758;6.872;2022-11-20T05:48:23;10.07;;;6.40;;
37529;SDS011;23374;52.758;6.872;2022-11-20T05:50:44;12.53;;;6.30;;
37529;SDS011;23374;52.758;6.872;2022-11-20T05:53:04;10.63;;;5.73;;
37529;SDS011;23374;52.758;6.872;2022-11-20T05:55:25;12.77;;;6.17;;
37529;SDS011;23374;52.758;6.872;2022-11-20T05:57:46;13.50;;;5.77;;
37529;SDS011;23374;52.758;6.872;2022-11-20T06:00:07;9.57;;;5.17;;
37529;SDS011;23374;52.758;6.872;2022-11-20T06:02:28;14.73;;;6.30;;
37529;SDS011;23374;52.758;6.872;2022-11-20T06:04:48;11.93;;;5.87;;
37529;SDS011;23374;52.758;6.872;2022-11-20T06:07:09;13.33;;;6.37;;
37529;SDS011;23374;52.758;6.872;2022-11-20T06:09:30;13.37;;;6.40;;
37529;SDS011;23374;52.758;6.872;2022-11-20T06:11:50;9.27;;;6.20;;
37529;SDS011;23374;52.758;6.872;2022-11-20T06:14:10;10.17;;;5.70;;
37529;SDS011;23374;52.758;6.872;2022-11-20T06:16:30;14.57;;;6.07;;
37529;SDS011;23374;52.758;6.872;2022-11-20T06:18:51;11.03;;;6.27;;
37529;SDS011;23374;52.758;6.872;2022-11-20T06:21:18;11.07;;;6.33;;
37529;SDS011;23374;52.758;6.872;2022-11-20T06:23:41;15.70;;;7.27;;
37529;SDS011;23374;52.758;6.872;2022-11-20T06:26:15;13.63;;;6.80;;
37529;SDS011;23374;52.758;6.872;2022-11-20T06:28:38;11.13;;;6.37;;
37529;SDS011;23374;52.758;6.872;2022-11-20T06:30:59;14.27;;;6.57;;
37529;SDS011;23374;52.758;6.872;2022-11-20T06:33:20;11.80;;;6.30;;
37529;SDS011;23374;52.758;6.872;2022-11-20T06:35:40;14.00;;;7.27;;
37529;SDS011;23374;52.758;6.872;2022-11-20T06:38:00;11.93;;;6.63;;
37529;SDS011;23374;52.758;6.872;2022-11-20T06:40:20;12.50;;;6.63;;
37529;SDS011;23374;52.758;6.872;2022-11-20T06:42:40;11.53;;;5.47;;
37529;SDS011;23374;52.758;6.872;2022-11-20T06:45:01;10.07;;;5.97;;
37529;SDS011;23374;52.758;6.872;2022-11-20T06:47:21;15.33;;;6.63;;
37529;SDS011;23374;52.758;6.872;2022-11-20T06:49:42;14.30;;;6.97;;
37529;SDS011;23374;52.758;6.872;2022-11-20T06:52:02;13.23;;;7.57;;
37529;SDS011;23374;52.758;6.872;2022-11-20T06:54:23;12.03;;;6.10;;
37529;SDS011;23374;52.758;6.872;2022-11-20T06:56:46;10.53;;;6.60;;
37529;SDS011;23374;52.758;6.872;2022-11-20T06:59:08;12.50;;;6.47;;
37529;SDS011;23374;52.758;6.872;2022-11-20T07:01:28;11.83;;;7.03;;
37529;SDS011;23374;52.758;6.872;2022-11-20T07:03:49;12.57;;;6.47;;
37529;SDS011;23374;52.758;6.872;2022-11-20T07:06:11;13.23;;;6.70;;
37529;SDS011;23374;52.758;6.872;2022-11-20T07:08:32;10.97;;;6.47;;
37529;SDS011;23374;52.758;6.872;2022-11-20T07:10:59;11.53;;;6.80;;
37529;SDS011;23374;52.758;6.872;2022-11-20T07:13:20;11.37;;;6.13;;
37529;SDS011;23374;52.758;6.872;2022-11-20T07:15:40;11.33;;;6.33;;
37529;SDS011;23374;52.758;6.872;2022-11-20T07:18:01;12.67;;;6.37;;
37529;SDS011;23374;52.758;6.872;2022-11-20T07:20:21;14.67;;;7.40;;
37529;SDS011;23374;52.758;6.872;2022-11-20T07:22:41;23.30;;;10.47;;
37529;SDS011;23374;52.758;6.872;2022-11-20T07:25:03;13.03;;;6.17;;
37529;SDS011;23374;52.758;6.872;2022-11-20T07:27:24;12.17;;;7.17;;
37529;SDS011;23374;52.758;6.872;2022-11-20T07:29:44;14.77;;;7.23;;
37529;SDS011;23374;52.758;6.872;2022-11-20T07:32:04;12.57;;;6.30;;
37529;SDS011;23374;52.758;6.872;2022-11-20T07:34:25;10.90;;;6.13;;
37529;SDS011;23374;52.758;6.872;2022-11-20T07:36:45;11.70;;;5.67;;
37529;SDS011;23374;52.758;6.872;2022-11-20T07:39:05;11.17;;;5.70;;
37529;SDS011;23374;52.758;6.872;2022-11-20T07:41:25;11.30;;;5.97;;
37529;SDS011;23374;52.758;6.872;2022-11-20T07:43:47;10.87;;;6.10;;
37529;SDS011;23374;52.758;6.872;2022-11-20T07:46:07;10.70;;;5.77;;
37529;SDS011;23374;52.758;6.872;2022-11-20T07:48:28;12.20;;;6.80;;
37529;SDS011;23374;52.758;6.872;2022-11-20T07:50:48;9.23;;;5.80;;
37529;SDS011;23374;52.758;6.872;2022-11-20T07:53:08;11.67;;;6.57;;
37529;SDS011;23374;52.758;6.872;2022-11-20T07:55:28;13.33;;;6.37;;
37529;SDS011;23374;52.758;6.872;2022-11-20T07:57:54;13.33;;;6.67;;
37529;SDS011;23374;52.758;6.872;2022-11-20T08:00:16;12.97;;;5.27;;
37529;SDS011;23374;52.758;6.872;2022-11-20T08:02:38;11.47;;;6.00;;
37529;SDS011;23374;52.758;6.872;2022-11-20T08:05:01;10.47;;;6.00;;
37529;SDS011;23374;52.758;6.872;2022-11-20T08:07:22;10.57;;;6.50;;
37529;SDS011;23374;52.758;6.872;2022-11-20T08:09:42;10.77;;;5.93;;
37529;SDS011;23374;52.758;6.872;2022-11-20T08:12:03;15.67;;;6.43;;
37529;SDS011;23374;52.758;6.872;2022-11-20T08:14:42;11.07;;;5.77;;
37529;SDS011;23374;52.758;6.872;2022-11-20T08:17:02;14.20;;;7.17;;
37529;SDS011;23374;52.758;6.872;2022-11-20T08:19:22;10.20;;;6.33;;
37529;SDS011;23374;52.758;6.872;2022-11-20T08:21:43;13.33;;;6.60;;
37529;SDS011;23374;52.758;6.872;2022-11-20T08:24:05;13.70;;;7.30;;
37529;SDS011;23374;52.758;6.872;2022-11-20T08:26:25;13.37;;;6.80;;
37529;SDS011;23374;52.758;6.872;2022-11-20T08:28:46;12.87;;;6.87;;
37529;SDS011;23374;52.758;6.872;2022-11-20T08:31:06;11.37;;;6.07;;
37529;SDS011;23374;52.758;6.872;2022-11-20T08:33:27;11.80;;;6.53;;
37529;SDS011;23374;52.758;6.872;2022-11-20T08:35:48;11.93;;;6.83;;
37529;SDS011;23374;52.758;6.872;2022-11-20T08:38:09;12.47;;;6.53;;
37529;SDS011;23374;52.758;6.872;2022-11-20T08:40:29;13.73;;;6.97;;
37529;SDS011;23374;52.758;6.872;2022-11-20T08:42:51;12.30;;;6.90;;
37529;SDS011;23374;52.758;6.872;2022-11-20T08:45:11;11.20;;;6.87;;
37529;SDS011;23374;52.758;6.872;2022-11-20T08:47:32;11.23;;;6.27;;
37529;SDS011;23374;52.758;6.872;2022-11-20T08:49:52;13.30;;;6.93;;
37529;SDS011;23374;52.758;6.872;2022-11-20T08:52:12;12.63;;;7.07;;
37529;SDS011;23374;52.758;6.872;2022-11-20T08:54:33;11.97;;;6.23;;
37529;SDS011;23374;52.758;6.872;2022-11-20T08:56:53;11.10;;;6.00;;
37529;SDS011;23374;52.758;6.872;2022-11-20T08:59:13;11.93;;;6.83;;
37529;SDS011;23374;52.758;6.872;2022-11-20T09:01:33;12.57;;;6.73;;
37529;SDS011;23374;52.758;6.872;2022-11-20T09:03:57;13.43;;;6.57;;
37529;SDS011;23374;52.758;6.872;2022-11-20T09:06:19;13.43;;;7.17;;
37529;SDS011;23374;52.758;6.872;2022-11-20T09:08:39;12.07;;;6.77;;
37529;SDS011;23374;52.758;6.872;2022-11-20T09:11:01;12.80;;;6.67;;
37529;SDS011;23374;52.758;6.872;2022-11-20T09:13:22;13.60;;;7.00;;
37529;SDS011;23374;52.758;6.872;2022-11-20T09:15:43;12.03;;;7.07;;
37529;SDS011;23374;52.758;6.872;2022-11-20T09:18:04;13.63;;;6.27;;
37529;SDS011;23374;52.758;6.872;2022-11-20T09:20:25;16.47;;;6.33;;
37529;SDS011;23374;52.758;6.872;2022-11-20T09:22:46;16.80;;;6.13;;
37529;SDS011;23374;52.758;6.872;2022-11-20T09:25:08;14.97;;;7.03;;
37529;SDS011;23374;52.758;6.872;2022-11-20T09:27:28;15.47;;;6.90;;
37529;SDS011;23374;52.758;6.872;2022-11-20T09:29:48;12.27;;;6.33;;
37529;SDS011;23374;52.758;6.872;2022-11-20T09:32:09;9.60;;;5.53;;
37529;SDS011;23374;52.758;6.872;2022-11-20T09:34:29;10.53;;;6.20;;
37529;SDS011;23374;52.758;6.872;2022-11-20T09:36:52;13.37;;;6.90;;
37529;SDS011;23374;52.758;6.872;2022-11-20T09:39:12;11.50;;;6.07;;
37529;SDS011;23374;52.758;6.872;2022-11-20T09:50:32;7.63;;;4.83;;
37529;SDS011;23374;52.758;6.872;2022-11-20T09:55:20;10.70;;;5.70;;
37529;SDS011;23374;52.758;6.872;2022-11-20T09:57:43;10.47;;;5.73;;
37529;SDS011;23374;52.758;6.872;2022-11-20T10:00:10;11.10;;;6.60;;
37529;SDS011;23374;52.758;6.872;2022-11-20T10:02:44;11.30;;;6.00;;
37529;SDS011;23374;52.758;6.872;2022-11-20T10:05:21;9.90;;;6.03;;
37529;SDS011;23374;52.758;6.872;2022-11-20T10:09:53;11.83;;;6.40;;
37529;SDS011;23374;52.758;6.872;2022-11-20T10:13:51;14.83;;;6.47;;
37529;SDS011;23374;52.758;6.872;2022-11-20T10:22:50;8.90;;;5.03;;
37529;SDS011;23374;52.758;6.872;2022-11-20T10:25:39;9.70;;;5.40;;
37529;SDS011;23374;52.758;6.872;2022-11-20T10:31:34;11.07;;;6.30;;
37529;SDS011;23374;52.758;6.872;2022-11-20T10:33:56;14.47;;;6.47;;
37529;SDS011;23374;52.758;6.872;2022-11-20T10:36:33;10.10;;;5.63;;
37529;SDS011;23374;52.758;6.872;2022-11-20T10:39:01;11.57;;;6.43;;
37529;SDS011;23374;52.758;6.872;2022-11-20T10:41:29;9.57;;;5.53;;
37529;SDS011;23374;52.758;6.872;2022-11-20T10:44:00;9.13;;;5.53;;
37529;SDS011;23374;52.758;6.872;2022-11-20T10:46:37;11.83;;;5.27;;
37529;SDS011;23374;52.758;6.872;2022-11-20T10:49:04;12.07;;;6.10;;
37529;SDS011;23374;52.758;6.872;2022-11-20T10:51:44;9.77;;;5.67;;
37529;SDS011;23374;52.758;6.872;2022-11-20T10:56:51;10.77;;;5.70;;
37529;SDS011;23374;52.758;6.872;2022-11-20T10:59:55;7.33;;;4.67;;
37529;SDS011;23374;52.758;6.872;2022-11-20T11:02:34;9.03;;;4.23;;
37529;SDS011;23374;52.758;6.872;2022-11-20T11:05:39;7.40;;;4.40;;
37529;SDS011;23374;52.758;6.872;2022-11-20T11:08:10;7.77;;;4.40;;
37529;SDS011;23374;52.758;6.872;2022-11-20T11:12:08;8.97;;;4.63;;
37529;SDS011;23374;52.758;6.872;2022-11-20T11:14:30;8.17;;;5.20;;
37529;SDS011;23374;52.758;6.872;2022-11-20T11:17:27;8.57;;;5.17;;
37529;SDS011;23374;52.758;6.872;2022-11-20T11:20:07;11.07;;;5.50;;
37529;SDS011;23374;52.758;6.872;2022-11-20T11:22:46;8.03;;;4.47;;
37529;SDS011;23374;52.758;6.872;2022-11-20T11:25:36;9.20;;;5.13;;
37529;SDS011;23374;52.758;6.872;2022-11-20T11:28:17;8.67;;;4.97;;
37529;SDS011;23374;52.758;6.872;2022-11-20T11:30:42;9.10;;;5.20;;
37529;SDS011;23374;52.758;6.872;2022-11-20T11:33:06;8.87;;;4.20;;
37529;SDS011;23374;52.758;6.872;2022-11-20T11:35:30;8.87;;;4.73;;
37529;SDS011;23374;52.758;6.872;2022-11-20T11:37:51;7.87;;;4.27;;
37529;SDS011;23374;52.758;6.872;2022-11-20T11:40:13;10.47;;;5.10;;
37529;SDS011;23374;52.758;6.872;2022-11-20T11:42:52;9.57;;;4.70;;
37529;SDS011;23374;52.758;6.872;2022-11-20T11:45:16;7.63;;;4.50;;
37529;SDS011;23374;52.758;6.872;2022-11-20T11:47:46;8.93;;;4.87;;
37529;SDS011;23374;52.758;6.872;2022-11-20T11:50:19;6.27;;;4.10;;
37529;SDS011;23374;52.758;6.872;2022-11-20T11:53:12;8.30;;;4.50;;
37529;SDS011;23374;52.758;6.872;2022-11-20T11:55:48;7.17;;;4.20;;
37529;SDS011;23374;52.758;6.872;2022-11-20T11:59:16;7.43;;;3.77;;
37529;SDS011;23374;52.758;6.872;2022-11-20T12:02:03;7.83;;;4.33;;
37529;SDS011;23374;52.758;6.872;2022-11-20T12:04:53;7.27;;;4.40;;
37529;SDS011;23374;52.758;6.872;2022-11-20T12:07:45;8.07;;;4.47;;
37529;SDS011;23374;52.758;6.872;2022-11-20T12:10:32;6.53;;;4.00;;
37529;SDS011;23374;52.758;6.872;2022-11-20T12:14:08;10.63;;;5.67;;
37529;SDS011;23374;52.758;6.872;2022-11-20T12:16:41;6.43;;;4.10;;
37529;SDS011;23374;52.758;6.872;2022-11-20T12:19:02;8.87;;;4.83;;
37529;SDS011;23374;52.758;6.872;2022-11-20T12:21:43;9.17;;;5.10;;
37529;SDS011;23374;52.758;6.872;2022-11-20T12:25:53;8.67;;;4.50;;
37529;SDS011;23374;52.758;6.872;2022-11-20T12:29:43;9.90;;;4.77;;
37529;SDS011;23374;52.758;6.872;2022-11-20T12:36:40;7.77;;;4.53;;
37529;SDS011;23374;52.758;6.872;2022-11-20T12:39:29;8.00;;;4.80;;
37529;SDS011;23374;52.758;6.872;2022-11-20T12:42:10;10.90;;;5.10;;
37529;SDS011;23374;52.758;6.872;2022-11-20T12:51:16;7.90;;;4.40;;
37529;SDS011;23374;52.758;6.872;2022-11-20T12:57:43;10.03;;;5.00;;
37529;SDS011;23374;52.758;6.872;2022-11-20T13:01:03;6.13;;;3.87;;
37529;SDS011;23374;52.758;6.872;2022-11-20T13:08:44;6.83;;;4.43;;
37529;SDS011;23374;52.758;6.872;2022-11-20T13:19:16;10.97;;;6.03;;
37529;SDS011;23374;52.758;6.872;2022-11-20T13:21:40;11.13;;;6.00;;
37529;SDS011;23374;52.758;6.872;2022-11-20T13:24:07;10.50;;;5.50;;
37529;SDS011;23374;52.758;6.872;2022-11-20T13:27:18;13.50;;;6.27;;
37529;SDS011;23374;52.758;6.872;2022-11-20T13:29:44;11.73;;;5.83;;
37529;SDS011;23374;52.758;6.872;2022-11-20T13:33:27;10.10;;;5.60;;
37529;SDS011;23374;52.758;6.872;2022-11-20T13:36:01;8.40;;;4.80;;
37529;SDS011;23374;52.758;6.872;2022-11-20T13:38:23;11.50;;;6.87;;
37529;SDS011;23374;52.758;6.872;2022-11-20T13:41:07;12.83;;;6.80;;
37529;SDS011;23374;52.758;6.872;2022-11-20T13:43:51;12.63;;;6.97;;
37529;SDS011;23374;52.758;6.872;2022-11-20T13:46:12;12.43;;;7.13;;
37529;SDS011;23374;52.758;6.872;2022-11-20T13:48:34;11.57;;;7.13;;
37529;SDS011;23374;52.758;6.872;2022-11-20T13:51:50;10.30;;;6.10;;
37529;SDS011;23374;52.758;6.872;2022-11-20T14:05:55;12.17;;;6.37;;
37529;SDS011;23374;52.758;6.872;2022-11-20T14:08:44;14.70;;;7.07;;
37529;SDS011;23374;52.758;6.872;2022-11-20T14:11:22;10.87;;;6.07;;
37529;SDS011;23374;52.758;6.872;2022-11-20T14:14:17;11.83;;;7.33;;
37529;SDS011;23374;52.758;6.872;2022-11-20T14:16:39;13.63;;;6.50;;
37529;SDS011;23374;52.758;6.872;2022-11-20T14:19:25;13.43;;;6.70;;
37529;SDS011;23374;52.758;6.872;2022-11-20T14:22:07;13.17;;;6.90;;
37529;SDS011;23374;52.758;6.872;2022-11-20T14:25:00;11.93;;;7.40;;
37529;SDS011;23374;52.758;6.872;2022-11-20T14:27:24;12.40;;;6.80;;
37529;SDS011;23374;52.758;6.872;2022-11-20T14:29:46;12.30;;;6.93;;
37529;SDS011;23374;52.758;6.872;2022-11-20T14:32:08;11.57;;;6.03;;
37529;SDS011;23374;52.758;6.872;2022-11-20T14:34:31;13.37;;;7.30;;
37529;SDS011;23374;52.758;6.872;2022-11-20T14:37:01;14.67;;;7.03;;
37529;SDS011;23374;52.758;6.872;2022-11-20T14:39:37;12.73;;;6.97;;
37529;SDS011;23374;52.758;6.872;2022-11-20T14:42:03;14.17;;;7.67;;
37529;SDS011;23374;52.758;6.872;2022-11-20T14:44:41;17.13;;;8.37;;
37529;SDS011;23374;52.758;6.872;2022-11-20T14:47:02;12.03;;;7.33;;
37529;SDS011;23374;52.758;6.872;2022-11-20T14:49:24;13.63;;;7.53;;
37529;SDS011;23374;52.758;6.872;2022-11-20T14:52:01;17.00;;;8.97;;
37529;SDS011;23374;52.758;6.872;2022-11-20T14:54:30;17.40;;;8.43;;
37529;SDS011;23374;52.758;6.872;2022-11-20T14:57:05;15.20;;;7.77;;
37529;SDS011;23374;52.758;6.872;2022-11-20T14:59:39;10.80;;;4.77;;
37529;SDS011;23374;52.758;6.872;2022-11-20T15:02:06;15.50;;;7.53;;
37529;SDS011;23374;52.758;6.872;2022-11-20T15:04:30;12.67;;;7.13;;
37529;SDS011;23374;52.758;6.872;2022-11-20T15:06:53;13.60;;;8.03;;
37529;SDS011;23374;52.758;6.872;2022-11-20T15:09:15;16.10;;;8.23;;
37529;SDS011;23374;52.758;6.872;2022-11-20T15:11:57;17.23;;;7.07;;
37529;SDS011;23374;52.758;6.872;2022-11-20T15:14:21;11.37;;;7.33;;
37529;SDS011;23374;52.758;6.872;2022-11-20T15:16:42;14.43;;;6.97;;
37529;SDS011;23374;52.758;6.872;2022-11-20T15:19:02;16.33;;;8.87;;
37529;SDS011;23374;52.758;6.872;2022-11-20T15:21:38;14.57;;;7.87;;
37529;SDS011;23374;52.758;6.872;2022-11-20T15:23:58;16.47;;;7.70;;
37529;SDS011;23374;52.758;6.872;2022-11-20T15:26:23;16.50;;;7.77;;
37529;SDS011;23374;52.758;6.872;2022-11-20T15:28:47;14.50;;;7.37;;
37529;SDS011;23374;52.758;6.872;2022-11-20T15:31:15;15.50;;;7.87;;
37529;SDS011;23374;52.758;6.872;2022-11-20T15:33:40;16.07;;;8.23;;
37529;SDS011;23374;52.758;6.872;2022-11-20T15:36:01;13.50;;;7.40;;
37529;SDS011;23374;52.758;6.872;2022-11-20T15:38:22;13.57;;;7.73;;
37529;SDS011;23374;52.758;6.872;2022-11-20T15:40:45;15.30;;;8.70;;
37529;SDS011;23374;52.758;6.872;2022-11-20T15:43:05;12.27;;;6.50;;
37529;SDS011;23374;52.758;6.872;2022-11-20T15:45:28;15.70;;;9.30;;